sensor_id;sensor_type;location;lat;lon;timestamp;pressure;altitude;pressure_sealevel;temperature;humidity
45255;BME280;30989;52.078;21.014;2022-12-18T00:01:30;162214.44;;;-5.88;100.00
45255;BME280;30989;52.078;21.014;2022-12-18T00:03:56;162199.94;;;-5.93;100.00
45255;BME280;30989;52.078;21.014;2022-12-18T00:06:23;162205.22;;;-5.91;100.00
45255;BME280;30989;52.078;21.014;2022-12-18T00:08:49;162218.41;;;-5.86;100.00
45255;BME280;30989;52.078;21.014;2022-12-18T00:11:21;162226.34;;;-5.83;100.00
45255;BME280;30989;52.078;21.014;2022-12-18T00:13:47;162217.09;;;-5.87;100.00
45255;BME280;30989;52.078;21.014;2022-12-18T00:16:16;162236.94;;;-5.79;100.00
45255;BME280;30989;52.078;21.014;2022-12-18T00:18:42;162239.59;;;-5.78;100.00
45255;BME280;30989;52.078;21.014;2022-12-18T00:21:09;162242.22;;;-5.77;100.00
45255;BME280;30989;52.078;21.014;2022-12-18T00:23:36;162242.22;;;-5.77;100.00
45255;BME280;30989;52.078;21.014;2022-12-18T00:26:06;162246.22;;;-5.75;100.00
45255;BME280;30989;52.078;21.014;2022-12-18T00:28:32;162246.22;;;-5.75;100.00
45255;BME280;30989;52.078;21.014;2022-12-18T00:31:05;162244.88;;;-5.76;100.00
45255;BME280;30989;52.078;21.014;2022-12-18T00:33:31;162258.13;;;-5.71;100.00
45255;BME280;30989;52.078;21.014;2022-12-18T00:36:17;162258.13;;;-5.71;100.00
45255;BME280;30989;52.078;21.014;2022-12-18T00:38:44;162255.47;;;-5.72;100.00
45255;BME280;30989;52.078;21.014;2022-12-18T00:41:10;162262.09;;;-5.69;100.00
45255;BME280;30989;52.078;21.014;2022-12-18T00:43:38;162266.06;;;-5.68;100.00
45255;BME280;30989;52.078;21.014;2022-12-18T00:46:04;162274.00;;;-5.65;100.00
45255;BME280;30989;52.078;21.014;2022-12-18T00:48:31;162263.41;;;-5.69;100.00
45255;BME280;30989;52.078;21.014;2022-12-18T00:50:57;162285.91;;;-5.60;100.00
45255;BME280;30989;52.078;21.014;2022-12-18T00:53:22;162263.41;;;-5.69;100.00
45255;BME280;30989;52.078;21.014;2022-12-18T00:55:48;162295.19;;;-5.57;100.00
45255;BME280;30989;52.078;21.014;2022-12-18T00:58:16;162300.47;;;-5.55;100.00
45255;BME280;30989;52.078;21.014;2022-12-18T01:00:43;162287.25;;;-5.60;100.00
45255;BME280;30989;52.078;21.014;2022-12-18T01:03:12;162295.19;;;-5.57;100.00
45255;BME280;30989;52.078;21.014;2022-12-18T01:05:39;162304.47;;;-5.53;100.00
45255;BME280;30989;52.078;21.014;2022-12-18T01:08:05;162300.47;;;-5.55;100.00
45255;BME280;30989;52.078;21.014;2022-12-18T01:10:31;162308.44;;;-5.52;100.00
45255;BME280;30989;52.078;21.014;2022-12-18T01:12:56;162319.03;;;-5.47;100.00
45255;BME280;30989;52.078;21.014;2022-12-18T01:15:22;162328.28;;;-5.44;100.00
45255;BME280;30989;52.078;21.014;2022-12-18T01:17:47;162333.59;;;-5.42;100.00
45255;BME280;30989;52.078;21.014;2022-12-18T01:20:13;162334.91;;;-5.41;100.00
45255;BME280;30989;52.078;21.014;2022-12-18T01:22:39;162332.25;;;-5.42;100.00
45255;BME280;30989;52.078;21.014;2022-12-18T01:25:07;162337.56;;;-5.40;100.00
45255;BME280;30989;52.078;21.014;2022-12-18T01:27:33;162346.81;;;-5.37;100.00
45255;BME280;30989;52.078;21.014;2022-12-18T01:29:59;162342.84;;;-5.38;100.00
45255;BME280;30989;52.078;21.014;2022-12-18T01:32:25;162350.81;;;-5.35;100.00
45255;BME280;30989;52.078;21.014;2022-12-18T01:34:50;162346.81;;;-5.37;100.00
45255;BME280;30989;52.078;21.014;2022-12-18T01:37:16;162342.84;;;-5.38;100.00
45255;BME280;30989;52.078;21.014;2022-12-18T01:39:41;162364.03;;;-5.30;100.00
45255;BME280;30989;52.078;21.014;2022-12-18T01:42:12;162369.34;;;-5.28;100.00
45255;BME280;30989;52.078;21.014;2022-12-18T01:47:38;162370.66;;;-5.28;100.00
45255;BME280;30989;52.078;21.014;2022-12-18T01:52:52;162369.34;;;-5.28;100.00
45255;BME280;30989;52.078;21.014;2022-12-18T01:55:20;162374.63;;;-5.26;100.00
45255;BME280;30989;52.078;21.014;2022-12-18T01:57:47;162377.28;;;-5.25;100.00
45255;BME280;30989;52.078;21.014;2022-12-18T02:00:18;162387.88;;;-5.21;100.00
45255;BME280;30989;52.078;21.014;2022-12-18T02:02:45;162387.88;;;-5.21;100.00
45255;BME280;30989;52.078;21.014;2022-12-18T02:05:15;162379.94;;;-5.24;100.00
45255;BME280;30989;52.078;21.014;2022-12-18T02:08:01;162391.91;;;-5.20;100.00
45255;BME280;30989;52.078;21.014;2022-12-18T02:10:40;162389.22;;;-5.21;100.00
45255;BME280;30989;52.078;21.014;2022-12-18T02:13:18;162395.88;;;-5.18;100.00
45255;BME280;30989;52.078;21.014;2022-12-18T02:15:51;162397.19;;;-5.17;100.00
45255;BME280;30989;52.078;21.014;2022-12-18T02:18:29;162390.59;;;-5.20;100.00
45255;BME280;30989;52.078;21.014;2022-12-18T02:21:12;162398.53;;;-5.17;100.00
45255;BME280;30989;52.078;21.014;2022-12-18T02:23:58;162374.63;;;-5.26;100.00
45255;BME280;30989;52.078;21.014;2022-12-18T02:26:30;162398.53;;;-5.17;100.00
45255;BME280;30989;52.078;21.014;2022-12-18T02:29:06;162401.19;;;-5.16;100.00
45255;BME280;30989;52.078;21.014;2022-12-18T02:31:57;162406.47;;;-5.14;100.00
45255;BME280;30989;52.078;21.014;2022-12-18T02:34:30;162401.19;;;-5.16;100.00
45255;BME280;30989;52.078;21.014;2022-12-18T02:36:58;162403.81;;;-5.15;100.00
45255;BME280;30989;52.078;21.014;2022-12-18T02:39:27;162401.19;;;-5.16;100.00
45255;BME280;30989;52.078;21.014;2022-12-18T02:42:00;162403.81;;;-5.15;100.00
45255;BME280;30989;52.078;21.014;2022-12-18T02:44:33;162399.84;;;-5.16;100.00
45255;BME280;30989;52.078;21.014;2022-12-18T02:46:59;162415.75;;;-5.10;100.00
45255;BME280;30989;52.078;21.014;2022-12-18T02:51:53;162415.75;;;-5.10;100.00
45255;BME280;30989;52.078;21.014;2022-12-18T02:57:03;162405.16;;;-5.14;100.00
45255;BME280;30989;52.078;21.014;2022-12-18T02:59:39;162414.41;;;-5.11;100.00
45255;BME280;30989;52.078;21.014;2022-12-18T03:02:17;162411.78;;;-5.12;100.00
45255;BME280;30989;52.078;21.014;2022-12-18T03:05:07;162411.78;;;-5.12;100.00
45255;BME280;30989;52.078;21.014;2022-12-18T03:07:38;162411.78;;;-5.12;100.00
45255;BME280;30989;52.078;21.014;2022-12-18T03:10:11;162411.78;;;-5.12;100.00
45255;BME280;30989;52.078;21.014;2022-12-18T03:12:43;162397.19;;;-5.17;100.00
45255;BME280;30989;52.078;21.014;2022-12-18T03:15:24;162406.47;;;-5.14;100.00
45255;BME280;30989;52.078;21.014;2022-12-18T03:18:02;162402.50;;;-5.15;100.00
45255;BME280;30989;52.078;21.014;2022-12-18T03:20:30;162417.06;;;-5.10;100.00
45255;BME280;30989;52.078;21.014;2022-12-18T03:23:03;162414.41;;;-5.11;100.00
45255;BME280;30989;52.078;21.014;2022-12-18T03:25:32;162406.47;;;-5.14;100.00
45255;BME280;30989;52.078;21.014;2022-12-18T03:28:01;162399.84;;;-5.16;100.00
45255;BME280;30989;52.078;21.014;2022-12-18T03:30:29;162406.47;;;-5.14;100.00
45255;BME280;30989;52.078;21.014;2022-12-18T03:33:08;162421.03;;;-5.08;100.00
45255;BME280;30989;52.078;21.014;2022-12-18T03:35:40;162409.13;;;-5.13;100.00
45255;BME280;30989;52.078;21.014;2022-12-18T03:38:07;162414.41;;;-5.11;100.00
45255;BME280;30989;52.078;21.014;2022-12-18T03:41:02;162425.00;;;-5.07;100.00
45255;BME280;30989;52.078;21.014;2022-12-18T03:43:59;162430.31;;;-5.05;100.00
45255;BME280;30989;52.078;21.014;2022-12-18T03:46:38;162425.00;;;-5.07;100.00
45255;BME280;30989;52.078;21.014;2022-12-18T03:49:12;162431.63;;;-5.04;100.00
45255;BME280;30989;52.078;21.014;2022-12-18T03:51:48;162425.00;;;-5.07;100.00
45255;BME280;30989;52.078;21.014;2022-12-18T03:54:16;162425.00;;;-5.07;100.00
45255;BME280;30989;52.078;21.014;2022-12-18T03:56:59;162419.72;;;-5.09;100.00
45255;BME280;30989;52.078;21.014;2022-12-18T03:59:28;162423.69;;;-5.07;100.00
45255;BME280;30989;52.078;21.014;2022-12-18T04:01:56;162417.06;;;-5.10;100.00
45255;BME280;30989;52.078;21.014;2022-12-18T04:04:25;162413.09;;;-5.11;100.00
45255;BME280;30989;52.078;21.014;2022-12-18T04:06:53;162414.41;;;-5.11;100.00
45255;BME280;30989;52.078;21.014;2022-12-18T04:09:20;162403.81;;;-5.15;100.00
45255;BME280;30989;52.078;21.014;2022-12-18T04:11:47;162417.06;;;-5.10;100.00
45255;BME280;30989;52.078;21.014;2022-12-18T04:14:14;162395.88;;;-5.18;100.00
45255;BME280;30989;52.078;21.014;2022-12-18T04:16:40;162393.22;;;-5.19;100.00
45255;BME280;30989;52.078;21.014;2022-12-18T04:19:09;162397.19;;;-5.17;100.00
45255;BME280;30989;52.078;21.014;2022-12-18T04:21:38;162410.44;;;-5.12;100.00
45255;BME280;30989;52.078;21.014;2022-12-18T04:24:05;162393.22;;;-5.19;100.00
45255;BME280;30989;52.078;21.014;2022-12-18T04:26:32;162398.53;;;-5.17;100.00
45255;BME280;30989;52.078;21.014;2022-12-18T04:29:12;162386.56;;;-5.22;100.00
45255;BME280;30989;52.078;21.014;2022-12-18T04:31:38;162390.59;;;-5.20;100.00
45255;BME280;30989;52.078;21.014;2022-12-18T04:34:04;162386.56;;;-5.22;100.00
45255;BME280;30989;52.078;21.014;2022-12-18T04:36:36;162387.88;;;-5.21;100.00
45255;BME280;30989;52.078;21.014;2022-12-18T04:39:02;162379.94;;;-5.24;100.00
45255;BME280;30989;52.078;21.014;2022-12-18T04:41:28;162369.34;;;-5.28;100.00
45255;BME280;30989;52.078;21.014;2022-12-18T04:43:54;162362.72;;;-5.31;100.00
45255;BME280;30989;52.078;21.014;2022-12-18T04:46:19;162356.09;;;-5.33;100.00
45255;BME280;30989;52.078;21.014;2022-12-18T04:48:46;162334.91;;;-5.41;100.00
45255;BME280;30989;52.078;21.014;2022-12-18T04:51:12;162337.56;;;-5.40;100.00
45255;BME280;30989;52.078;21.014;2022-12-18T04:53:38;162326.97;;;-5.44;100.00
45255;BME280;30989;52.078;21.014;2022-12-18T04:56:11;162311.06;;;-5.51;100.00
45255;BME280;30989;52.078;21.014;2022-12-18T04:58:39;162303.13;;;-5.54;100.00
45255;BME280;30989;52.078;21.014;2022-12-18T05:01:05;162281.94;;;-5.62;100.00
45255;BME280;30989;52.078;21.014;2022-12-18T05:03:31;162274.00;;;-5.65;100.00
45255;BME280;30989;52.078;21.014;2022-12-18T05:05:56;162263.41;;;-5.69;100.00
45255;BME280;30989;52.078;21.014;2022-12-18T05:08:22;162232.97;;;-5.80;100.00
45255;BME280;30989;52.078;21.014;2022-12-18T05:10:48;162221.06;;;-5.85;100.00
45255;BME280;30989;52.078;21.014;2022-12-18T05:13:14;162207.88;;;-5.90;100.00
45255;BME280;30989;52.078;21.014;2022-12-18T05:15:39;162191.97;;;-5.96;100.00
45255;BME280;30989;52.078;21.014;2022-12-18T05:18:04;162176.09;;;-6.02;100.00
45255;BME280;30989;52.078;21.014;2022-12-18T05:20:30;162144.34;;;-6.14;100.00
45255;BME280;30989;52.078;21.014;2022-12-18T05:22:56;162144.34;;;-6.14;100.00
45255;BME280;30989;52.078;21.014;2022-12-18T05:25:22;162139.03;;;-6.17;100.00
45255;BME280;30989;52.078;21.014;2022-12-18T05:27:48;162143.00;;;-6.15;100.00
45255;BME280;30989;52.078;21.014;2022-12-18T05:30:14;162139.03;;;-6.17;100.00
45255;BME280;30989;52.078;21.014;2022-12-18T05:32:41;162136.41;;;-6.18;100.00
45255;BME280;30989;52.078;21.014;2022-12-18T05:35:09;162136.41;;;-6.18;100.00
45255;BME280;30989;52.078;21.014;2022-12-18T05:37:34;162116.56;;;-6.25;100.00
45255;BME280;30989;52.078;21.014;2022-12-18T05:40:00;162125.81;;;-6.22;100.00
45255;BME280;30989;52.078;21.014;2022-12-18T05:42:26;162104.66;;;-6.30;100.00
45255;BME280;30989;52.078;21.014;2022-12-18T05:44:51;162116.56;;;-6.25;100.00
45255;BME280;30989;52.078;21.014;2022-12-18T05:47:17;162104.66;;;-6.30;100.00
45255;BME280;30989;52.078;21.014;2022-12-18T05:49:42;162104.66;;;-6.30;100.00
45255;BME280;30989;52.078;21.014;2022-12-18T05:52:08;162095.38;;;-6.33;100.00
45255;BME280;30989;52.078;21.014;2022-12-18T05:54:34;162082.16;;;-6.38;100.00
45255;BME280;30989;52.078;21.014;2022-12-18T05:56:59;162072.88;;;-6.42;100.00
45255;BME280;30989;52.078;21.014;2022-12-18T05:59:25;162082.16;;;-6.38;100.00
45255;BME280;30989;52.078;21.014;2022-12-18T06:01:50;162068.91;;;-6.43;100.00
45255;BME280;30989;52.078;21.014;2022-12-18T06:04:16;162075.53;;;-6.41;100.00
45255;BME280;30989;52.078;21.014;2022-12-18T06:06:42;162075.53;;;-6.41;100.00
45255;BME280;30989;52.078;21.014;2022-12-18T06:09:07;162083.47;;;-6.38;100.00
45255;BME280;30989;52.078;21.014;2022-12-18T06:11:38;162086.13;;;-6.37;100.00
45255;BME280;30989;52.078;21.014;2022-12-18T06:14:05;162087.44;;;-6.36;100.00
45255;BME280;30989;52.078;21.014;2022-12-18T06:16:31;162083.47;;;-6.38;100.00
45255;BME280;30989;52.078;21.014;2022-12-18T06:19:01;162071.56;;;-6.42;100.00
45255;BME280;30989;52.078;21.014;2022-12-18T06:21:28;162095.38;;;-6.33;100.00
45255;BME280;30989;52.078;21.014;2022-12-18T06:23:53;162102.00;;;-6.31;100.00
45255;BME280;30989;52.078;21.014;2022-12-18T06:26:19;162098.03;;;-6.32;100.00
45255;BME280;30989;52.078;21.014;2022-12-18T06:28:44;162115.22;;;-6.26;100.00
45255;BME280;30989;52.078;21.014;2022-12-18T06:31:10;162128.47;;;-6.21;100.00
45255;BME280;30989;52.078;21.014;2022-12-18T06:33:37;162127.13;;;-6.21;100.00
45255;BME280;30989;52.078;21.014;2022-12-18T06:36:08;162145.66;;;-6.14;100.00
45255;BME280;30989;52.078;21.014;2022-12-18T06:38:35;162152.28;;;-6.11;100.00
45255;BME280;30989;52.078;21.014;2022-12-18T06:41:06;162154.94;;;-6.10;100.00
45255;BME280;30989;52.078;21.014;2022-12-18T06:43:31;162160.22;;;-6.08;100.00
45255;BME280;30989;52.078;21.014;2022-12-18T06:46:00;162168.16;;;-6.05;100.00
45255;BME280;30989;52.078;21.014;2022-12-18T06:48:27;162169.50;;;-6.05;100.00
45255;BME280;30989;52.078;21.014;2022-12-18T06:50:53;162170.81;;;-6.04;100.00
45255;BME280;30989;52.078;21.014;2022-12-18T06:53:18;162172.13;;;-6.04;100.00
45255;BME280;30989;52.078;21.014;2022-12-18T06:55:44;162182.72;;;-6.00;100.00
45255;BME280;30989;52.078;21.014;2022-12-18T06:58:09;162188.00;;;-5.98;100.00
45255;BME280;30989;52.078;21.014;2022-12-18T07:00:35;162194.63;;;-5.95;100.00
45255;BME280;30989;52.078;21.014;2022-12-18T07:03:00;162210.50;;;-5.89;100.00
45255;BME280;30989;52.078;21.014;2022-12-18T07:05:26;162205.22;;;-5.91;100.00
45255;BME280;30989;52.078;21.014;2022-12-18T07:07:51;162222.38;;;-5.85;100.00
45255;BME280;30989;52.078;21.014;2022-12-18T07:10:20;162223.69;;;-5.84;100.00
45255;BME280;30989;52.078;21.014;2022-12-18T07:12:46;162229.00;;;-5.82;100.00
45255;BME280;30989;52.078;21.014;2022-12-18T07:15:11;162221.06;;;-5.85;100.00
45255;BME280;30989;52.078;21.014;2022-12-18T07:17:37;162235.63;;;-5.79;100.00
45255;BME280;30989;52.078;21.014;2022-12-18T07:20:03;162248.84;;;-5.74;100.00
45255;BME280;30989;52.078;21.014;2022-12-18T07:22:29;162256.78;;;-5.71;100.00
45255;BME280;30989;52.078;21.014;2022-12-18T07:24:54;162258.13;;;-5.71;100.00
45255;BME280;30989;52.078;21.014;2022-12-18T07:27:20;162260.75;;;-5.70;100.00
45255;BME280;30989;52.078;21.014;2022-12-18T07:29:46;162283.28;;;-5.61;100.00
45255;BME280;30989;52.078;21.014;2022-12-18T07:32:11;162297.84;;;-5.56;100.00
45255;BME280;30989;52.078;21.014;2022-12-18T07:34:37;162304.47;;;-5.53;100.00
45255;BME280;30989;52.078;21.014;2022-12-18T07:37:02;162315.06;;;-5.49;100.00
45255;BME280;30989;52.078;21.014;2022-12-18T07:39:28;162324.31;;;-5.45;100.00
45255;BME280;30989;52.078;21.014;2022-12-18T07:41:53;162334.91;;;-5.41;100.00
45255;BME280;30989;52.078;21.014;2022-12-18T07:44:39;162352.13;;;-5.35;100.00
45255;BME280;30989;52.078;21.014;2022-12-18T07:47:04;162361.41;;;-5.31;100.00
45255;BME280;30989;52.078;21.014;2022-12-18T07:49:30;162385.22;;;-5.22;100.00
45255;BME280;30989;52.078;21.014;2022-12-18T07:51:56;162386.56;;;-5.22;100.00
45255;BME280;30989;52.078;21.014;2022-12-18T07:54:23;162366.69;;;-5.29;100.00
45255;BME280;30989;52.078;21.014;2022-12-18T07:56:48;162377.28;;;-5.25;100.00
45255;BME280;30989;52.078;21.014;2022-12-18T07:59:14;162387.88;;;-5.21;100.00
45255;BME280;30989;52.078;21.014;2022-12-18T08:01:40;162387.88;;;-5.21;100.00
45255;BME280;30989;52.078;21.014;2022-12-18T08:04:05;162379.94;;;-5.24;100.00
45255;BME280;30989;52.078;21.014;2022-12-18T08:06:31;162382.59;;;-5.23;100.00
45255;BME280;30989;52.078;21.014;2022-12-18T08:08:56;162381.25;;;-5.24;100.00
45255;BME280;30989;52.078;21.014;2022-12-18T08:11:24;162415.75;;;-5.10;100.00
45255;BME280;30989;52.078;21.014;2022-12-18T08:13:50;162414.41;;;-5.11;100.00
45255;BME280;30989;52.078;21.014;2022-12-18T08:16:16;162426.34;;;-5.06;100.00
45255;BME280;30989;52.078;21.014;2022-12-18T08:18:41;162434.28;;;-5.03;100.00
45255;BME280;30989;52.078;21.014;2022-12-18T08:21:14;162448.84;;;-4.98;100.00
45255;BME280;30989;52.078;21.014;2022-12-18T08:23:40;162454.16;;;-4.96;100.00
45255;BME280;30989;52.078;21.014;2022-12-18T08:26:06;162481.97;;;-4.85;100.00
45255;BME280;30989;52.078;21.014;2022-12-18T08:28:33;162503.16;;;-4.77;100.00
45255;BME280;30989;52.078;21.014;2022-12-18T08:30:58;162516.41;;;-4.72;100.00
45255;BME280;30989;52.078;21.014;2022-12-18T08:33:24;162491.25;;;-4.81;100.00
45255;BME280;30989;52.078;21.014;2022-12-18T08:35:51;162496.53;;;-4.79;100.00
45255;BME280;30989;52.078;21.014;2022-12-18T08:38:16;162504.50;;;-4.76;100.00
45255;BME280;30989;52.078;21.014;2022-12-18T08:40:42;162501.84;;;-4.77;100.00
45255;BME280;30989;52.078;21.014;2022-12-18T08:43:09;162491.25;;;-4.81;100.00
45255;BME280;30989;52.078;21.014;2022-12-18T08:45:54;162497.88;;;-4.79;100.00
45255;BME280;30989;52.078;21.014;2022-12-18T08:48:20;162476.66;;;-4.87;100.00
45255;BME280;30989;52.078;21.014;2022-12-18T08:50:58;162491.25;;;-4.81;100.00
45255;BME280;30989;52.078;21.014;2022-12-18T08:53:25;162493.91;;;-4.80;100.00
45255;BME280;30989;52.078;21.014;2022-12-18T08:55:50;162491.25;;;-4.81;100.00
45255;BME280;30989;52.078;21.014;2022-12-18T08:58:16;162488.59;;;-4.82;100.00
45255;BME280;30989;52.078;21.014;2022-12-18T09:00:41;162463.44;;;-4.92;100.00
45255;BME280;30989;52.078;21.014;2022-12-18T09:03:16;162495.22;;;-4.80;100.00
45255;BME280;30989;52.078;21.014;2022-12-18T09:05:43;162501.84;;;-4.77;100.00
45255;BME280;30989;52.078;21.014;2022-12-18T09:08:08;162504.50;;;-4.76;100.00
45255;BME280;30989;52.078;21.014;2022-12-18T09:10:41;162525.69;;;-4.68;100.00
45255;BME280;30989;52.078;21.014;2022-12-18T09:13:07;162525.69;;;-4.68;100.00
45255;BME280;30989;52.078;21.014;2022-12-18T09:15:33;162524.38;;;-4.69;100.00
45255;BME280;30989;52.078;21.014;2022-12-18T09:17:58;162524.38;;;-4.69;100.00
45255;BME280;30989;52.078;21.014;2022-12-18T09:20:24;162519.06;;;-4.71;100.00
45255;BME280;30989;52.078;21.014;2022-12-18T09:22:49;162541.59;;;-4.62;100.00
45255;BME280;30989;52.078;21.014;2022-12-18T09:25:15;162550.88;;;-4.59;100.00
45255;BME280;30989;52.078;21.014;2022-12-18T09:27:40;162544.25;;;-4.61;100.00
45255;BME280;30989;52.078;21.014;2022-12-18T09:30:06;162557.50;;;-4.56;100.00
45255;BME280;30989;52.078;21.014;2022-12-18T09:32:32;162557.50;;;-4.56;100.00
45255;BME280;30989;52.078;21.014;2022-12-18T09:34:57;162561.47;;;-4.55;100.00
45255;BME280;30989;52.078;21.014;2022-12-18T09:37:23;162572.06;;;-4.50;100.00
45255;BME280;30989;52.078;21.014;2022-12-18T09:39:49;162594.59;;;-4.42;100.00
45255;BME280;30989;52.078;21.014;2022-12-18T09:42:21;162613.16;;;-4.35;100.00
45255;BME280;30989;52.078;21.014;2022-12-18T09:44:52;162637.00;;;-4.26;100.00
45255;BME280;30989;52.078;21.014;2022-12-18T09:47:28;162658.22;;;-4.17;100.00
45255;BME280;30989;52.078;21.014;2022-12-18T09:50:01;162647.59;;;-4.22;100.00
45255;BME280;30989;52.078;21.014;2022-12-18T09:52:40;162662.19;;;-4.16;100.00
45255;BME280;30989;52.078;21.014;2022-12-18T09:57:56;162615.78;;;-4.34;100.00
45255;BME280;30989;52.078;21.014;2022-12-18T10:00:24;162605.19;;;-4.38;100.00
45255;BME280;30989;52.078;21.014;2022-12-18T10:02:52;162613.16;;;-4.35;100.00
45255;BME280;30989;52.078;21.014;2022-12-18T10:05:33;162629.03;;;-4.29;100.00
45255;BME280;30989;52.078;21.014;2022-12-18T10:08:18;162643.63;;;-4.23;100.00
45255;BME280;30989;52.078;21.014;2022-12-18T10:10:52;162660.84;;;-4.16;100.00
45255;BME280;30989;52.078;21.014;2022-12-18T10:13:35;162674.09;;;-4.11;100.00
45255;BME280;30989;52.078;21.014;2022-12-18T10:16:06;162674.09;;;-4.11;100.00
45255;BME280;30989;52.078;21.014;2022-12-18T10:19:01;162662.19;;;-4.16;100.00
45255;BME280;30989;52.078;21.014;2022-12-18T10:21:39;162656.88;;;-4.18;100.00
45255;BME280;30989;52.078;21.014;2022-12-18T10:27:12;162676.75;;;-4.10;100.00
45255;BME280;30989;52.078;21.014;2022-12-18T10:29:39;162696.66;;;-4.03;100.00
45255;BME280;30989;52.078;21.014;2022-12-18T10:32:04;162695.31;;;-4.03;100.00
45255;BME280;30989;52.078;21.014;2022-12-18T10:34:30;162697.97;;;-4.02;100.00
45255;BME280;30989;52.078;21.014;2022-12-18T10:36:56;162676.75;;;-4.10;100.00
45255;BME280;30989;52.078;21.014;2022-12-18T10:39:24;162655.56;;;-4.18;100.00
45255;BME280;30989;52.078;21.014;2022-12-18T10:41:51;162671.47;;;-4.12;100.00
45255;BME280;30989;52.078;21.014;2022-12-18T10:44:23;162678.09;;;-4.10;100.00
45255;BME280;30989;52.078;21.014;2022-12-18T10:47:02;162660.84;;;-4.16;100.00
45255;BME280;30989;52.078;21.014;2022-12-18T10:49:31;162630.38;;;-4.28;100.00
45255;BME280;30989;52.078;21.014;2022-12-18T10:52:18;162631.69;;;-4.28;100.00
45255;BME280;30989;52.078;21.014;2022-12-18T10:55:02;162614.47;;;-4.34;100.00
45255;BME280;30989;52.078;21.014;2022-12-18T10:57:32;162598.56;;;-4.40;100.00
45255;BME280;30989;52.078;21.014;2022-12-18T11:00:00;162598.56;;;-4.40;100.00
45255;BME280;30989;52.078;21.014;2022-12-18T11:02:37;162594.59;;;-4.42;100.00
45255;BME280;30989;52.078;21.014;2022-12-18T11:05:29;162582.66;;;-4.46;100.00
45255;BME280;30989;52.078;21.014;2022-12-18T11:07:56;162590.63;;;-4.43;100.00
45255;BME280;30989;52.078;21.014;2022-12-18T11:10:26;162614.47;;;-4.34;100.00
45255;BME280;30989;52.078;21.014;2022-12-18T11:12:53;162640.97;;;-4.24;100.00
45255;BME280;30989;52.078;21.014;2022-12-18T11:15:29;162635.69;;;-4.26;100.00
45255;BME280;30989;52.078;21.014;2022-12-18T11:17:55;162618.44;;;-4.33;100.00
45255;BME280;30989;52.078;21.014;2022-12-18T11:20:39;162622.41;;;-4.31;100.00
45255;BME280;30989;52.078;21.014;2022-12-18T11:23:11;162615.78;;;-4.34;100.00
45255;BME280;30989;52.078;21.014;2022-12-18T11:25:39;162611.81;;;-4.35;100.00
45255;BME280;30989;52.078;21.014;2022-12-18T11:31:16;162676.75;;;-4.10;100.00
45255;BME280;30989;52.078;21.014;2022-12-18T11:34:09;162684.72;;;-4.07;100.00
45255;BME280;30989;52.078;21.014;2022-12-18T11:36:38;162727.13;;;-3.91;100.00
45255;BME280;30989;52.078;21.014;2022-12-18T11:39:34;162753.66;;;-3.81;100.00
45255;BME280;30989;52.078;21.014;2022-12-18T11:42:02;162778.84;;;-3.71;100.00
45255;BME280;30989;52.078;21.014;2022-12-18T11:45:00;162788.13;;;-3.68;100.00
45255;BME280;30989;52.078;21.014;2022-12-18T11:47:28;162809.34;;;-3.60;100.00
45255;BME280;30989;52.078;21.014;2022-12-18T11:50:00;162846.47;;;-3.45;100.00
45255;BME280;30989;52.078;21.014;2022-12-18T11:52:33;162851.78;;;-3.43;100.00
45255;BME280;30989;52.078;21.014;2022-12-18T11:55:10;162870.34;;;-3.36;100.00
45255;BME280;30989;52.078;21.014;2022-12-18T11:57:52;162891.56;;;-3.28;100.00
45255;BME280;30989;52.078;21.014;2022-12-18T12:00:22;162911.47;;;-3.20;100.00
45255;BME280;30989;52.078;21.014;2022-12-18T12:06:03;162976.47;;;-2.96;100.00
45255;BME280;30989;52.078;21.014;2022-12-18T12:14:47;163013.59;;;-2.81;100.00
45255;BME280;30989;52.078;21.014;2022-12-18T12:17:37;163029.53;;;-2.75;100.00
45255;BME280;30989;52.078;21.014;2022-12-18T12:20:20;163046.78;;;-2.69;100.00
45255;BME280;30989;52.078;21.014;2022-12-18T12:22:58;163034.84;;;-2.73;100.00
45255;BME280;30989;52.078;21.014;2022-12-18T12:25:47;163024.22;;;-2.77;100.00
45255;BME280;30989;52.078;21.014;2022-12-18T12:36:29;162934.00;;;-3.12;100.00
45255;BME280;30989;52.078;21.014;2022-12-18T12:39:01;162928.69;;;-3.14;100.00
45255;BME280;30989;52.078;21.014;2022-12-18T12:41:33;162916.75;;;-3.18;100.00
45255;BME280;30989;52.078;21.014;2022-12-18T12:44:23;162899.53;;;-3.25;100.00
45255;BME280;30989;52.078;21.014;2022-12-18T12:46:52;162846.47;;;-3.45;100.00
45255;BME280;30989;52.078;21.014;2022-12-18T12:49:21;162809.34;;;-3.60;100.00
45255;BME280;30989;52.078;21.014;2022-12-18T12:52:03;162780.16;;;-3.71;100.00
45255;BME280;30989;52.078;21.014;2022-12-18T12:54:31;162785.47;;;-3.69;100.00
45255;BME280;30989;52.078;21.014;2022-12-18T12:57:04;162782.81;;;-3.70;100.00
45255;BME280;30989;52.078;21.014;2022-12-18T13:02:35;162745.69;;;-3.84;100.00
45255;BME280;30989;52.078;21.014;2022-12-18T13:08:04;162732.44;;;-3.89;100.00
45255;BME280;30989;52.078;21.014;2022-12-18T13:10:41;162729.78;;;-3.90;100.00
45255;BME280;30989;52.078;21.014;2022-12-18T13:13:10;162735.09;;;-3.88;100.00
45255;BME280;30989;52.078;21.014;2022-12-18T13:15:48;162735.09;;;-3.88;100.00
45255;BME280;30989;52.078;21.014;2022-12-18T13:18:23;162717.84;;;-3.95;100.00
45255;BME280;30989;52.078;21.014;2022-12-18T13:34:18;162621.09;;;-4.32;100.00
45255;BME280;30989;52.078;21.014;2022-12-18T13:36:45;162618.44;;;-4.33;100.00
45255;BME280;30989;52.078;21.014;2022-12-18T13:41:39;162597.25;;;-4.41;100.00
45255;BME280;30989;52.078;21.014;2022-12-18T13:46:46;162570.75;;;-4.51;100.00